Loup City, NE (68853)

12:38 CST je la 05an de marto 2015 (GMT -0600)
Central | Change Station
CLOSE
Current Station
Personaj Veter-Stacioj
Location: Loup City, NE
Alteco: 2090 ft
Najbaraj veter-stacioj

Elev 2090 ft 41.28 °N, 98.97 °W | Updated 3 minutes ago

Sennuba
Sennuba
30.4 °F
Sentas kiel 25 °F
N
5.3
Vento Varianta Vento from Sudo

hodiaŭ
High -- | Low -- °F
--% Ebla precip.
hieraŭ
High -- | Low -- °F
Precip. -- co
7:04 AM 6:31 PM
Plenlumo, 100% visible
Aerpremo 30.48 co
Vidodistanco 10.0 mejloj
Nuboj Sennuba
Venta
kvazaŭtemperaturo
25 °F
Rosopunkto 11 °F
Humido 44%
Pluvokvanto co
Neĝprofundo Not available.
UV 5 out of 12
Pollen 2.20 out of 12
Aerkvalito Not available.
Flu Activity Not available.
METAR KODX 051753Z AUTO 19016KT 10SM CLR M03/M16 A3035 RMK AO2 SLP320 T10331161 11028 21200 58017

More Conditions Fewer Conditions

Aerpremo 30.48 co
Vidodistanco 10.0 mejloj
Nuboj Sennuba
Venta
kvazaŭtemperaturo
25 °F
Rosopunkto 11 °F
Humido 44%
Pluvokvanto co
Neĝprofundo Not available.
UV 5 out of 12
Pollen 2.20 out of 12
Aerkvalito Not available.
Flu Activity Not available.
METAR KODX 051753Z AUTO 19016KT 10SM CLR M03/M16 A3035 RMK AO2 SLP320 T10331161 11028 21200 58017

More Conditions Fewer Conditions

10-Day Weather Forecast

Almanac

Astronomio

Mar. 05, 2015 Leviĝo Subiro
Aktuala tempo
Civila krepusko
Naŭtika krepusko
Astronomia krepusko
Luno
Daŭro de videbla lumo
Daŭro de tago
Tomorrow will be .
, % of the Moon is Illuminated

Hodiaŭaj ekstremaĵoj

State Highs State Lows

Community

WunderPhotos

Upload Photos

1,802,905 photos uploaded!

WunderBlogs® & News

Nearby

Aerkvalito

  Aerkvalito Aerkvalita indico Poluanto
Not available.

Neĝa profundeco

Station Depth Alteco

Earthquake Activity

Urbo Distance Mag. Time & Date
Minimum magnitude displayed is 2.5.

Coastal Water Temperatures

Loko Temperaturo

Najbaraj veter-stacioj